Time;durP1;ratioP1;P1;durP2;ratioP2;P2;SDS_P1;SDS_P2;PMS_P1;PMS_P2;Temp;Humidity;BMP_temperature;BMP_pressure;BME280_temperature;BME280_humidity;BME280_pressure;Samples;Min_cycle;Max_cycle;Signal;HPM_P1;HPM_P2
2023/10/07 00:02:16;;;;;;;14.40;5.00;;;14.40;99.90;;;;;;5072931;28;20170;-47
2023/10/07 00:04:44;;;;;;;9.95;3.40;;;14.30;99.90;;;;;;5072914;28;20207;-47
2023/10/07 00:07:14;;;;;;;11.35;4.13;;;14.30;99.90;;;;;;5072646;28;20169;-47
2023/10/07 00:09:46;;;;;;;10.20;4.22;;;14.30;99.90;;;;;;5072592;28;20170;-48
2023/10/07 00:12:15;;;;;;;8.75;3.30;;;14.20;99.90;;;;;;5072931;28;20648;-47
2023/10/07 00:14:41;;;;;;;9.23;3.70;;;14.20;99.90;;;;;;5072971;28;20188;-47
2023/10/07 00:17:16;;;;;;;8.48;3.72;;;14.20;99.90;;;;;;5072623;28;20212;-47
2023/10/07 00:19:42;;;;;;;11.05;4.10;;;14.20;99.90;;;;;;5072860;28;20177;-47
2023/10/07 00:22:09;;;;;;;7.05;4.20;;;14.20;99.90;;;;;;5072481;28;20256;-47
2023/10/07 00:24:40;;;;;;;5.70;3.75;;;14.10;99.90;;;;;;5072743;28;20173;-47
2023/10/07 00:27:13;;;;;;;10.60;4.68;;;14.10;99.90;;;;;;5072447;28;20526;-47
2023/10/07 00:29:54;;;;;;;11.73;4.35;;;14.10;99.90;;;;;;5072618;28;20174;-47
2023/10/07 00:32:28;;;;;;;7.90;3.55;;;14.10;99.90;;;;;;5073007;28;20169;-47
2023/10/07 00:34:59;;;;;;;8.85;4.03;;;14.10;99.90;;;;;;5072537;28;20224;-47
2023/10/07 00:37:26;;;;;;;7.18;4.05;;;14.10;99.90;;;;;;5071541;28;20202;-47
2023/10/07 00:39:53;;;;;;;7.50;3.97;;;14.10;99.90;;;;;;5072900;28;20176;-47
2023/10/07 00:42:19;;;;;;;12.40;4.30;;;14.10;99.90;;;;;;5072799;28;20253;-47
2023/10/07 00:44:47;;;;;;;10.40;4.20;;;14.10;99.90;;;;;;5072130;28;20522;-47
2023/10/07 00:47:13;;;;;;;11.68;4.22;;;14.00;99.90;;;;;;5071837;28;20305;-47
2023/10/07 00:49:50;;;;;;;9.32;4.30;;;14.00;99.90;;;;;;5072078;28;20166;-47
2023/10/07 00:52:40;;;;;;;6.82;3.72;;;14.00;99.90;;;;;;5072205;28;20257;-47
2023/10/07 00:55:16;;;;;;;9.10;4.28;;;14.00;99.90;;;;;;5071828;28;20697;-47
2023/10/07 00:57:47;;;;;;;10.73;4.18;;;14.00;99.90;;;;;;5072146;28;20484;-47
2023/10/07 01:02:45;;;;;;;6.90;3.95;;;14.00;99.90;;;;;;5072067;28;20188;-47
2023/10/07 01:05:13;;;;;;;14.25;6.40;;;14.00;99.90;;;;;;5071619;28;20162;-47
2023/10/07 01:07:41;;;;;;;9.57;4.05;;;14.00;99.90;;;;;;5071877;28;20166;-48
2023/10/07 01:12:37;;;;;;;9.13;4.80;;;14.00;99.90;;;;;;5071957;28;20166;-47
2023/10/07 01:15:29;;;;;;;8.57;4.63;;;14.00;99.90;;;;;;5071806;28;20192;-47
2023/10/07 01:18:14;;;;;;;10.30;4.10;;;14.00;99.90;;;;;;5071575;28;20178;-47
2023/10/07 01:23:18;;;;;;;8.43;4.38;;;14.00;99.90;;;;;;5071602;28;20569;-47
2023/10/07 01:25:50;;;;;;;9.20;4.65;;;13.90;99.90;;;;;;5071744;28;20220;-47
2023/10/07 01:28:20;;;;;;;13.85;5.13;;;13.90;99.90;;;;;;5071459;28;20637;-48
2023/10/07 01:31:08;;;;;;;10.90;4.97;;;13.90;99.90;;;;;;5071496;28;20515;-47
2023/10/07 01:33:38;;;;;;;10.10;4.47;;;13.90;99.90;;;;;;5071488;28;20208;-47
2023/10/07 01:36:16;;;;;;;15.13;4.40;;;;;;;;;;5071393;28;20201;-48
2023/10/07 01:38:51;;;;;;;11.38;4.25;;;13.90;99.90;;;;;;5071369;28;20172;-47
2023/10/07 01:41:20;;;;;;;11.23;4.63;;;13.90;99.90;;;;;;5071709;28;20165;-47
2023/10/07 01:43:59;;;;;;;12.77;5.07;;;13.90;99.90;;;;;;5071584;28;20166;-47
2023/10/07 01:46:29;;;;;;;8.98;4.15;;;13.90;99.90;;;;;;5071053;28;20226;-48
2023/10/07 01:49:06;;;;;;;10.40;4.32;;;13.90;99.90;;;;;;5073424;28;20200;-47
2023/10/07 01:51:32;;;;;;;6.32;4.00;;;14.00;99.90;;;;;;5075439;28;20183;-48
2023/10/07 01:54:03;;;;;;;11.77;5.28;;;13.90;99.90;;;;;;5075462;28;20633;-47
2023/10/07 01:56:29;;;;;;;10.50;5.25;;;13.90;99.90;;;;;;5075516;28;20561;-47
2023/10/07 01:58:58;;;;;;;5.88;4.15;;;13.90;99.90;;;;;;5075354;28;20188;-48
2023/10/07 02:01:28;;;;;;;12.38;3.95;;;13.90;99.90;;;;;;5075217;28;20236;-47
2023/10/07 02:03:57;;;;;;;10.52;5.18;;;13.90;99.90;;;;;;5075184;28;20577;-47
2023/10/07 02:06:24;;;;;;;10.07;4.68;;;13.90;99.90;;;;;;5075086;28;20629;-47
2023/10/07 02:08:50;;;;;;;10.07;5.07;;;13.90;99.90;;;;;;5075916;28;20177;-47
2023/10/07 02:11:25;;;;;;;9.00;4.63;;;13.90;99.90;;;;;;5074999;28;20193;-48
2023/10/07 02:13:52;;;;;;;10.05;4.65;;;13.90;99.90;;;;;;5075713;28;20307;-48
2023/10/07 02:16:19;;;;;;;12.68;4.40;;;13.90;99.90;;;;;;5075583;28;20206;-47
2023/10/07 02:18:44;;;;;;;11.68;5.15;;;13.90;99.90;;;;;;5075149;28;20242;-47
2023/10/07 02:21:11;;;;;;;10.88;5.05;;;;;;;;;;5057070;28;20641;-47
2023/10/07 02:23:37;;;;;;;10.73;5.18;;;13.90;99.90;;;;;;5074788;28;20162;-47
2023/10/07 02:26:07;;;;;;;9.98;4.53;;;13.90;99.90;;;;;;5075002;28;20165;-47
2023/10/07 02:28:34;;;;;;;10.88;4.75;;;13.90;99.90;;;;;;5075044;28;20257;-47
2023/10/07 02:31:07;;;;;;;8.68;5.45;;;13.90;99.90;;;;;;5074908;28;20174;-48
2023/10/07 02:33:41;;;;;;;10.25;4.95;;;14.00;99.90;;;;;;5074881;28;20195;-48
2023/10/07 02:36:12;;;;;;;10.70;4.80;;;13.90;99.90;;;;;;5074366;28;20672;-47
2023/10/07 02:38:41;;;;;;;9.93;4.97;;;13.90;99.90;;;;;;5074786;28;20182;-47
2023/10/07 02:41:16;;;;;;;8.77;4.75;;;13.90;99.90;;;;;;5074410;28;20158;-47
2023/10/07 02:43:44;;;;;;;14.35;5.30;;;13.90;99.90;;;;;;5074716;28;20181;-47
2023/10/07 02:46:22;;;;;;;12.55;5.25;;;13.90;99.90;;;;;;5074210;28;20217;-48
2023/10/07 02:48:48;;;;;;;7.60;4.47;;;13.80;99.90;;;;;;5074997;28;20166;-47
2023/10/07 02:51:14;;;;;;;11.93;5.05;;;13.90;99.90;;;;;;5074289;28;20224;-48
2023/10/07 02:53:39;;;;;;;11.25;4.90;;;13.90;99.90;;;;;;5074453;28;20174;-48
2023/10/07 02:56:17;;;;;;;11.40;5.43;;;13.80;99.90;;;;;;5074163;28;20198;-47
2023/10/07 02:58:59;;;;;;;12.52;5.05;;;13.90;99.90;;;;;;5074380;28;20204;-48
2023/10/07 03:01:26;;;;;;;10.70;5.18;;;13.90;99.90;;;;;;5073158;28;20166;-48
2023/10/07 03:03:53;;;;;;;14.20;5.45;;;14.00;99.90;;;;;;5056113;28;20590;-47
2023/10/07 03:06:19;;;;;;;9.63;5.05;;;13.90;99.90;;;;;;5074724;28;20252;-47
2023/10/07 03:11:20;;;;;;;14.10;6.28;;;14.00;99.90;;;;;;5073991;28;20211;-48
2023/10/07 03:13:46;;;;;;;10.57;6.18;;;14.00;99.90;;;;;;5074144;28;20270;-47
2023/10/07 03:18:55;;;;;;;12.10;6.32;;;14.00;99.90;;;;;;5074162;28;20162;-47
2023/10/07 03:21:21;;;;;;;12.32;5.90;;;14.00;99.90;;;;;;5074152;28;20173;-48
2023/10/07 03:23:48;;;;;;;15.48;5.97;;;14.00;99.90;;;;;;5074181;28;20162;-47
2023/10/07 03:26:18;;;;;;;13.57;6.60;;;14.00;99.90;;;;;;5073944;28;20177;-47
2023/10/07 03:28:55;;;;;;;15.73;6.80;;;14.10;99.90;;;;;;5073822;28;20613;-47
2023/10/07 03:31:47;;;;;;;12.07;6.22;;;14.10;99.90;;;;;;5073576;28;20301;-48
2023/10/07 03:34:09;;;;;;;13.00;6.03;;;14.00;99.90;;;;;;5073384;28;20257;-47
2023/10/07 03:36:41;;;;;;;12.50;6.03;;;14.10;99.90;;;;;;5073758;28;20214;-47
2023/10/07 03:39:25;;;;;;;13.30;6.65;;;14.10;99.90;;;;;;5073694;28;20239;-47
2023/10/07 03:41:52;;;;;;;13.48;6.80;;;14.10;99.90;;;;;;5074085;28;20178;-47
2023/10/07 03:44:19;;;;;;;9.32;6.30;;;14.10;99.90;;;;;;5073945;28;20253;-48
2023/10/07 03:46:54;;;;;;;14.13;6.78;;;14.10;99.90;;;;;;5073229;28;20228;-47
2023/10/07 03:49:21;;;;;;;17.73;7.65;;;14.20;99.90;;;;;;5073950;28;20166;-47
2023/10/07 03:54:31;;;;;;;12.88;7.00;;;14.20;99.90;;;;;;5073432;28;20173;-47
2023/10/07 03:56:59;;;;;;;18.75;7.68;;;14.10;99.90;;;;;;5073045;28;20556;-47
2023/10/07 03:59:27;;;;;;;14.73;7.72;;;14.20;99.90;;;;;;5073067;28;20159;-47
2023/10/07 04:01:53;;;;;;;16.65;7.05;;;14.20;99.90;;;;;;5072937;28;20202;-47
2023/10/07 04:04:22;;;;;;;13.40;6.82;;;14.30;99.90;;;;;;5073757;28;20178;-47
2023/10/07 04:06:48;;;;;;;14.70;6.60;;;14.20;99.90;;;;;;5073311;28;20170;-47
2023/10/07 04:09:14;;;;;;;14.07;7.38;;;14.30;99.90;;;;;;5073174;28;20557;-47
2023/10/07 04:11:48;;;;;;;12.27;6.97;;;14.20;99.90;;;;;;5072030;28;20684;-48
2023/10/07 04:14:27;;;;;;;12.63;7.35;;;14.30;99.90;;;;;;5072773;28;20162;-47
2023/10/07 04:17:03;;;;;;;12.98;6.18;;;14.30;99.90;;;;;;5072629;28;20205;-48
2023/10/07 04:21:57;;;;;;;12.57;6.30;;;14.30;99.90;;;;;;5072663;28;20549;-48
2023/10/07 04:24:24;;;;;;;13.15;6.57;;;14.30;99.90;;;;;;5072561;28;20211;-50
2023/10/07 04:27:03;;;;;;;22.92;6.68;;;14.40;99.90;;;;;;5073247;28;20170;-50
2023/10/07 04:29:32;;;;;;;10.45;6.22;;;14.40;99.90;;;;;;5072685;28;20248;-51
2023/10/07 04:32:05;;;;;;;10.40;5.60;;;14.50;99.90;;;;;;5072660;28;20173;-49
2023/10/07 04:34:35;;;;;;;14.70;6.43;;;14.50;99.90;;;;;;5054572;28;20166;-50
2023/10/07 04:42:22;;;;;;;15.52;5.55;;;14.40;99.90;;;;;;5072628;28;20649;-49
2023/10/07 04:47:34;;;;;;;13.93;5.80;;;14.40;99.90;;;;;;5072462;28;20217;-50
2023/10/07 04:50:15;;;;;;;21.67;6.35;;;14.40;99.90;;;;;;5072313;28;20222;-50
2023/10/07 04:52:50;;;;;;;12.60;5.72;;;14.40;99.90;;;;;;5072011;28;20279;-51
2023/10/07 04:55:19;;;;;;;15.07;5.82;;;14.40;99.90;;;;;;5071832;28;20667;-50
2023/10/07 05:02:59;;;;;;;14.63;6.30;;;14.60;99.90;;;;;;5072086;28;20225;-48
2023/10/07 05:05:30;;;;;;;9.40;6.35;;;14.50;99.90;;;;;;5071802;28;20219;-50
2023/10/07 05:07:58;;;;;;;11.13;4.78;;;14.60;99.90;;;;;;5054083;28;20177;-51
2023/10/07 05:10:28;;;;;;;11.25;5.90;;;;;;;;;;5071693;28;20167;-50
2023/10/07 05:12:55;;;;;;;12.05;5.55;;;14.50;99.90;;;;;;5071825;28;20652;-48
2023/10/07 05:15:21;;;;;;;9.10;5.10;;;;;;;;;;5071680;28;20170;-48
2023/10/07 05:17:47;;;;;;;11.63;5.72;;;14.50;99.90;;;;;;5072275;28;20229;-50
2023/10/07 05:20:27;;;;;;;9.60;5.22;;;14.50;99.90;;;;;;5071816;28;20645;-50
2023/10/07 05:22:55;;;;;;;12.88;6.13;;;14.60;99.90;;;;;;5071235;28;20641;-49
2023/10/07 05:25:22;;;;;;;15.48;5.97;;;14.70;99.90;;;;;;5053596;28;20173;-50
2023/10/07 05:27:50;;;;;;;9.15;5.80;;;14.60;99.90;;;;;;5071806;28;20176;-50
2023/10/07 05:30:16;;;;;;;13.27;5.68;;;14.70;99.90;;;;;;5071919;28;20261;-47
2023/10/07 05:32:42;;;;;;;11.93;5.40;;;14.60;99.90;;;;;;5071488;28;20162;-49
2023/10/07 05:35:08;;;;;;;13.40;6.07;;;14.60;99.90;;;;;;5071262;28;20200;-50
2023/10/07 05:37:34;;;;;;;10.48;5.60;;;14.60;99.90;;;;;;5070975;28;20710;-51
2023/10/07 05:40:03;;;;;;;9.88;5.03;;;14.70;99.90;;;;;;5071384;28;20166;-50
2023/10/07 05:42:28;;;;;;;12.02;5.90;;;14.60;99.90;;;;;;5071666;28;20174;-51
2023/10/07 05:44:54;;;;;;;14.95;6.85;;;14.50;99.90;;;;;;5071308;28;20656;-50
2023/10/07 05:47:20;;;;;;;14.70;6.78;;;14.70;99.90;;;;;;5071568;28;20222;-51
2023/10/07 05:49:45;;;;;;;9.32;6.22;;;14.70;99.90;;;;;;5071539;28;20303;-51
2023/10/07 05:52:11;;;;;;;8.95;6.63;;;14.70;99.90;;;;;;5071600;28;20181;-49
2023/10/07 05:54:37;;;;;;;11.77;6.15;;;14.60;99.90;;;;;;5071567;28;20177;-51
2023/10/07 05:57:05;;;;;;;12.90;5.95;;;14.60;99.90;;;;;;5071179;28;20205;-51
2023/10/07 05:59:34;;;;;;;9.13;6.07;;;14.60;99.90;;;;;;5071444;28;20170;-51
2023/10/07 06:02:05;;;;;;;9.07;5.20;;;14.70;99.90;;;;;;5071160;28;20169;-50
2023/10/07 06:04:31;;;;;;;9.40;5.60;;;14.70;99.90;;;;;;5071425;28;20166;-50
2023/10/07 06:06:57;;;;;;;12.60;5.40;;;14.80;99.90;;;;;;5071171;28;20170;-50
2023/10/07 06:09:23;;;;;;;11.65;5.00;;;14.80;99.90;;;;;;5071063;28;20199;-50
2023/10/07 06:11:49;;;;;;;8.73;5.68;;;14.70;99.90;;;;;;5071743;28;20216;-50
2023/10/07 06:14:18;;;;;;;9.80;5.07;;;14.70;99.90;;;;;;5071056;28;20194;-50
2023/10/07 06:16:44;;;;;;;14.10;5.78;;;14.80;99.90;;;;;;5071129;28;20225;-51
2023/10/07 06:19:13;;;;;;;9.82;6.05;;;14.80;99.90;;;;;;5070959;28;20177;-51
2023/10/07 06:21:50;;;;;;;12.40;5.40;;;14.80;99.90;;;;;;5071087;28;20578;-50
2023/10/07 06:24:20;;;;;;;8.57;5.15;;;14.90;99.90;;;;;;5071592;28;20249;-50
2023/10/07 06:26:49;;;;;;;11.38;5.00;;;14.90;99.90;;;;;;5071505;28;20178;-51
2023/10/07 06:29:18;;;;;;;11.20;5.10;;;15.00;99.90;;;;;;5070865;28;20770;-49
2023/10/07 06:31:54;;;;;;;7.63;4.90;;;15.00;99.90;;;;;;5070824;28;20174;-50
2023/10/07 06:34:25;;;;;;;13.10;5.43;;;;;;;;;;5070793;28;20208;-48
2023/10/07 06:36:52;;;;;;;8.32;4.38;;;15.00;99.90;;;;;;5073975;28;20209;-51
2023/10/07 06:39:25;;;;;;;8.48;4.85;;;15.00;99.90;;;;;;5074789;28;20562;-50
2023/10/07 06:41:55;;;;;;;10.40;4.35;;;14.90;99.90;;;;;;5074649;28;20173;-48
2023/10/07 06:44:22;;;;;;;14.25;5.30;;;;;;;;;;5074392;28;20170;-48
2023/10/07 06:46:54;;;;;;;12.70;5.13;;;15.00;99.90;;;;;;5074671;28;20220;-52
2023/10/07 06:49:21;;;;;;;10.50;5.47;;;;;;;;;;5074592;28;20212;-49
2023/10/07 06:51:52;;;;;;;10.38;4.63;;;15.10;99.90;;;;;;5074757;28;20172;-51
2023/10/07 06:54:19;;;;;;;9.48;4.50;;;15.00;99.90;;;;;;5056854;28;20541;-52
2023/10/07 06:56:50;;;;;;;9.63;4.75;;;15.10;99.90;;;;;;5074229;28;20213;-50
2023/10/07 06:59:16;;;;;;;14.70;5.30;;;15.20;99.90;;;;;;5056719;28;20629;-49
2023/10/07 07:04:14;;;;;;;9.23;4.47;;;15.20;99.90;;;;;;5074433;28;20174;-49
2023/10/07 07:06:57;;;;;;;11.23;4.85;;;15.20;99.90;;;;;;5074067;28;20162;-49
2023/10/07 07:12:09;;;;;;;11.73;4.35;;;15.40;99.90;;;;;;5074290;28;20632;-49
2023/10/07 07:14:35;;;;;;;8.07;4.93;;;15.50;99.90;;;;;;5073900;28;20174;-49
2023/10/07 07:17:29;;;;;;;10.52;4.30;;;15.50;99.90;;;;;;5073759;28;20250;-49
2023/10/07 07:22:36;;;;;;;10.48;4.63;;;15.80;99.90;;;;;;5074060;28;20666;-49
2023/10/07 07:25:17;;;;;;;9.95;4.00;;;15.80;99.90;;;;;;5073824;28;20176;-49
2023/10/07 07:27:48;;;;;;;14.52;4.90;;;15.80;99.90;;;;;;5073583;28;20637;-49
2023/10/07 07:30:29;;;;;;;7.32;3.78;;;15.90;99.90;;;;;;5073947;28;20177;-49
2023/10/07 07:32:55;;;;;;;8.32;3.95;;;15.90;99.90;;;;;;5073626;28;20176;-50
2023/10/07 07:35:38;;;;;;;12.75;4.60;;;15.90;99.90;;;;;;5073799;28;20178;-49
2023/10/07 07:38:11;;;;;;;7.70;3.75;;;15.90;99.90;;;;;;5073761;28;20186;-49
2023/10/07 07:40:40;;;;;;;9.77;3.40;;;15.90;99.90;;;;;;5073371;28;20626;-49
2023/10/07 07:43:07;;;;;;;6.45;4.05;;;15.90;99.90;;;;;;5073648;28;20178;-49
2023/10/07 07:45:36;;;;;;;6.85;3.65;;;16.00;99.90;;;;;;5073485;28;20166;-49
2023/10/07 07:48:06;;;;;;;7.63;3.97;;;15.90;99.90;;;;;;5073421;28;20258;-49
2023/10/07 07:50:35;;;;;;;8.77;4.85;;;15.90;99.90;;;;;;5073337;28;20641;-52
2023/10/07 07:53:06;;;;;;;8.63;4.38;;;16.00;99.90;;;;;;5073546;28;20235;-52
2023/10/07 07:55:37;;;;;;;8.52;4.18;;;16.00;99.90;;;;;;5073208;28;20158;-52
2023/10/07 07:58:03;;;;;;;11.25;4.28;;;15.90;99.90;;;;;;5073195;28;20184;-51
2023/10/07 08:00:31;;;;;;;10.40;4.32;;;16.00;99.90;;;;;;5073115;28;20170;-52
2023/10/07 08:03:00;;;;;;;9.50;4.05;;;16.00;99.90;;;;;;5073071;28;20502;-50
2023/10/07 08:05:28;;;;;;;8.10;4.28;;;16.00;99.90;;;;;;5072982;28;20200;-50
2023/10/07 08:07:55;;;;;;;10.00;4.43;;;16.00;99.90;;;;;;5072883;28;20174;-52
2023/10/07 08:10:22;;;;;;;9.45;4.32;;;15.90;99.90;;;;;;5073130;28;20224;-50
2023/10/07 08:12:50;;;;;;;9.25;3.75;;;15.90;99.90;;;;;;5073511;28;20580;-52
2023/10/07 08:15:23;;;;;;;8.98;4.40;;;15.90;99.90;;;;;;5073514;28;20181;-51
2023/10/07 08:17:52;;;;;;;11.32;4.15;;;15.90;99.90;;;;;;5073110;28;20281;-50
2023/10/07 08:20:37;;;;;;;7.53;4.47;;;15.90;99.90;;;;;;5073300;28;20528;-50
2023/10/07 08:23:21;;;;;;;8.55;3.80;;;15.90;99.90;;;;;;5072498;28;20173;-49
2023/10/07 08:25:47;;;;;;;9.32;3.53;;;16.00;99.90;;;;;;5072975;28;20170;-49
2023/10/07 08:28:23;;;;;;;10.02;4.10;;;16.10;99.90;;;;;;5054722;28;20166;-49
2023/10/07 08:30:49;;;;;;;10.43;3.50;;;16.20;99.90;;;;;;5072814;28;20157;-49
2023/10/07 08:33:20;;;;;;;7.50;3.65;;;16.30;99.90;;;;;;5054896;28;20326;-49
2023/10/07 08:35:48;;;;;;;8.18;4.10;;;16.50;99.90;;;;;;5072909;28;20170;-48
2023/10/07 08:38:20;;;;;;;6.10;3.85;;;16.50;99.90;;;;;;5072256;28;20169;-49
2023/10/07 08:41:04;;;;;;;7.78;4.10;;;16.60;99.90;;;;;;5072724;28;20552;-48
2023/10/07 08:43:43;;;;;;;8.38;4.20;;;16.70;99.90;;;;;;5072490;28;20174;-48
2023/10/07 08:46:12;;;;;;;8.30;4.35;;;16.80;99.90;;;;;;5072239;28;20249;-49
2023/10/07 08:48:49;;;;;;;7.65;3.67;;;16.90;99.90;;;;;;5072323;28;20231;-49
2023/10/07 08:51:17;;;;;;;9.10;3.80;;;17.10;99.90;;;;;;5072720;28;20226;-49
2023/10/07 08:53:43;;;;;;;7.13;3.72;;;17.10;99.90;;;;;;5072060;28;20166;-48
2023/10/07 08:56:09;;;;;;;11.02;3.90;;;17.10;99.90;;;;;;5072098;28;20204;-48
2023/10/07 08:58:39;;;;;;;8.13;4.25;;;17.00;99.90;;;;;;5071632;28;20181;-49
2023/10/07 09:01:07;;;;;;;9.80;4.00;;;17.10;99.90;;;;;;5054035;28;20570;-49
2023/10/07 09:03:39;;;;;;;10.68;4.18;;;17.20;99.90;;;;;;5071723;28;20180;-48
2023/10/07 09:06:09;;;;;;;8.35;3.85;;;17.10;99.90;;;;;;5072040;28;20173;-49
2023/10/07 09:08:35;;;;;;;9.85;4.10;;;17.10;99.90;;;;;;5072044;28;20170;-49
2023/10/07 09:11:06;;;;;;;16.20;5.07;;;17.10;99.90;;;;;;5071760;28;20625;-48
2023/10/07 09:13:38;;;;;;;7.13;3.78;;;17.40;99.90;;;;;;5071670;28;20170;-49
2023/10/07 09:16:07;;;;;;;7.82;3.90;;;17.70;99.90;;;;;;5071496;28;20201;-49
2023/10/07 09:18:42;;;;;;;11.57;4.82;;;17.90;99.90;;;;;;5071444;28;20224;-49
2023/10/07 09:21:09;;;;;;;13.45;4.38;;;18.00;99.90;;;;;;5071463;28;20571;-50
2023/10/07 09:23:46;;;;;;;6.43;3.80;;;18.10;99.90;;;;;;5071535;28;20629;-49
2023/10/07 09:26:33;;;;;;;7.10;3.65;;;18.10;99.90;;;;;;5071469;28;20173;-49
2023/10/07 09:29:07;;;;;;;9.50;3.80;;;18.10;99.90;;;;;;5071499;28;20163;-49
2023/10/07 09:31:35;;;;;;;9.13;3.92;;;18.10;99.90;;;;;;5071721;28;20170;-48
2023/10/07 09:34:09;;;;;;;6.88;3.83;;;18.20;99.90;;;;;;5071745;28;20170;-48
2023/10/07 09:36:40;;;;;;;61.03;15.88;;;18.20;99.90;;;;;;5071540;28;20197;-49
2023/10/07 09:42:03;;;;;;;9.18;3.83;;;18.20;99.90;;;;;;5040397;28;20202;-49
2023/10/07 09:44:31;;;;;;;6.70;3.92;;;18.20;99.90;;;;;;5071608;28;20182;-49
2023/10/07 09:47:03;;;;;;;6.85;3.65;;;18.40;99.90;;;;;;5071189;28;20209;-49
2023/10/07 09:49:30;;;;;;;5.78;3.15;;;18.40;99.90;;;;;;5071541;28;20288;-48
2023/10/07 09:52:16;;;;;;;7.85;4.47;;;18.50;99.90;;;;;;5071536;28;20166;-49
2023/10/07 09:55:38;;;;;;;11.70;4.07;;;18.70;99.90;;;;;;5071576;28;20185;-49
2023/10/07 09:58:36;;;;;;;10.35;4.30;;;18.70;99.90;;;;;;4985690;28;20259;-49
2023/10/07 10:01:40;;;;;;;8.98;3.80;;;19.00;99.90;;;;;;5071171;28;20162;-49
2023/10/07 10:04:36;;;;;;;10.45;4.43;;;19.00;99.90;;;;;;5071058;28;20174;-49
2023/10/07 10:07:28;;;;;;;10.90;3.88;;;18.80;99.90;;;;;;5071296;28;20178;-49
2023/10/07 10:10:08;;;;;;;5.95;3.33;;;18.80;99.90;;;;;;5071433;28;20170;-49
2023/10/07 10:18:05;;;;;;;6.47;3.58;;;19.40;99.90;;;;;;5075223;28;20263;-49
2023/10/07 10:20:44;;;;;;;8.50;3.40;;;19.60;99.90;;;;;;5075188;28;20174;-49
2023/10/07 10:23:19;;;;;;;6.78;3.33;;;19.70;99.90;;;;;;5074927;28;20248;-48
2023/10/07 10:25:50;;;;;;;7.82;3.83;;;19.70;99.90;;;;;;5075305;28;20529;-49
2023/10/07 10:28:28;;;;;;;7.03;3.55;;;19.70;99.90;;;;;;5075281;28;20170;-49
2023/10/07 10:30:56;;;;;;;6.75;3.60;;;19.70;99.90;;;;;;5074859;28;20548;-49
2023/10/07 10:33:25;;;;;;;6.82;3.47;;;19.70;99.90;;;;;;5074684;28;20182;-49
2023/10/07 10:35:52;;;;;;;6.55;3.35;;;19.80;99.90;;;;;;5074510;28;20280;-49
2023/10/07 10:38:19;;;;;;;7.90;3.28;;;19.90;99.90;;;;;;5075228;28;20232;-49
2023/10/07 10:40:45;;;;;;;5.70;3.53;;;20.10;99.90;;;;;;5074692;28;20231;-49
2023/10/07 10:43:23;;;;;;;7.03;3.40;;;19.90;99.90;;;;;;5074492;28;20170;-49
2023/10/07 10:46:04;;;;;;;4.97;3.05;;;19.90;99.90;;;;;;5056534;28;20267;-51
2023/10/07 10:48:34;;;;;;;6.65;3.80;;;19.90;99.90;;;;;;5074721;28;20169;-49
2023/10/07 10:51:05;;;;;;;9.20;3.45;;;20.10;99.90;;;;;;5074601;28;20196;-49
2023/10/07 10:53:40;;;;;;;4.18;2.63;;;20.00;99.90;;;;;;5074140;28;20180;-48
2023/10/07 10:56:07;;;;;;;6.15;3.17;;;20.10;99.90;;;;;;5074433;28;20197;-52
2023/10/07 10:58:36;;;;;;;5.00;2.83;;;20.20;99.90;;;;;;5074561;28;20231;-50
2023/10/07 11:01:05;;;;;;;4.95;2.88;;;;;;;;;;5074301;28;20170;-49
2023/10/07 11:03:31;;;;;;;5.95;3.20;;;;;;;;;;5074212;28;20645;-51
2023/10/07 11:05:57;;;;;;;4.63;2.88;;;20.30;99.90;;;;;;5074214;28;20169;-49
2023/10/07 11:08:26;;;;;;;5.90;3.20;;;20.40;99.90;;;;;;5056125;28;20208;-52
2023/10/07 11:10:58;;;;;;;7.30;3.20;;;20.40;99.90;;;;;;5074045;28;20162;-49
2023/10/07 11:13:26;;;;;;;5.55;3.20;;;20.30;99.90;;;;;;5073954;28;20162;-49
2023/10/07 11:16:09;;;;;;;8.02;3.35;;;20.30;99.90;;;;;;5073814;28;20158;-52
2023/10/07 11:18:37;;;;;;;4.38;3.00;;;;;;;;;;5055394;28;20177;-49
2023/10/07 11:21:09;;;;;;;6.40;3.53;;;20.40;99.90;;;;;;5073515;28;20175;-50
2023/10/07 11:23:47;;;;;;;6.85;3.17;;;20.60;99.90;;;;;;5073701;28;20173;-49
2023/10/07 11:26:13;;;;;;;3.35;2.47;;;20.70;99.90;;;;;;5074057;28;20181;-49
2023/10/07 11:28:41;;;;;;;7.03;3.17;;;20.60;99.90;;;;;;5073261;28;20757;-49
2023/10/07 11:31:10;;;;;;;6.00;3.28;;;20.80;99.90;;;;;;5073834;28;20185;-49
2023/10/07 11:33:36;;;;;;;5.35;2.92;;;20.80;99.90;;;;;;5073553;28;20497;-49
2023/10/07 11:36:03;;;;;;;6.25;3.40;;;20.90;99.90;;;;;;5060094;28;20213;-49
2023/10/07 11:38:32;;;;;;;7.45;2.88;;;20.80;99.90;;;;;;5052329;28;20163;-49
2023/10/07 11:40:59;;;;;;;5.63;2.97;;;20.80;99.90;;;;;;5051926;28;20162;-49
2023/10/07 11:43:29;;;;;;;5.45;3.10;;;20.80;99.90;;;;;;5052708;28;20754;-49
2023/10/07 11:45:54;;;;;;;6.53;3.50;;;20.70;99.90;;;;;;5052695;28;20245;-49
2023/10/07 11:48:21;;;;;;;6.57;3.53;;;20.70;99.90;;;;;;5052805;28;20315;-49
2023/10/07 11:50:47;;;;;;;5.00;3.20;;;20.70;99.90;;;;;;5052860;28;20693;-51
2023/10/07 11:53:13;;;;;;;4.50;2.90;;;;;;;;;;5053065;28;20198;-49
2023/10/07 11:55:38;;;;;;;5.10;3.10;;;21.00;99.90;;;;;;5053214;28;20174;-49
2023/10/07 11:58:07;;;;;;;8.38;3.28;;;21.00;99.90;;;;;;5035191;28;20206;-49
2023/10/07 12:00:36;;;;;;;6.55;3.25;;;21.10;99.90;;;;;;5053063;28;20166;-49
2023/10/07 12:03:06;;;;;;;5.40;3.15;;;20.90;99.90;;;;;;5053281;28;20213;-49
2023/10/07 12:05:32;;;;;;;6.18;2.80;;;20.80;99.90;;;;;;5053222;28;20192;-50
2023/10/07 12:08:01;;;;;;;6.55;3.20;;;21.20;99.90;;;;;;5052912;28;20626;-49
2023/10/07 12:10:28;;;;;;;9.00;3.50;;;21.10;99.90;;;;;;5053078;28;20174;-50
2023/10/07 12:12:53;;;;;;;7.90;3.25;;;21.40;99.90;;;;;;5052890;28;20217;-49
2023/10/07 12:15:19;;;;;;;6.65;3.08;;;;;;;;;;5052857;28;20630;-49
2023/10/07 12:17:45;;;;;;;4.93;3.00;;;21.30;99.90;;;;;;5053060;28;20738;-49
2023/10/07 12:20:19;;;;;;;7.53;3.10;;;21.40;99.90;;;;;;5053035;28;20171;-49
2023/10/07 12:22:46;;;;;;;7.60;2.83;;;21.20;99.90;;;;;;5053089;28;20166;-49
2023/10/07 12:25:16;;;;;;;5.95;3.10;;;21.40;99.90;;;;;;5052677;28;20554;-49
2023/10/07 12:27:42;;;;;;;6.82;3.35;;;21.30;99.90;;;;;;5034768;28;20174;-48
2023/10/07 12:30:11;;;;;;;6.47;3.20;;;21.60;99.90;;;;;;5052522;28;20721;-49
2023/10/07 12:32:40;;;;;;;4.78;3.17;;;21.70;99.90;;;;;;5051940;28;20258;-48
2023/10/07 12:35:09;;;;;;;5.72;3.40;;;21.70;99.90;;;;;;5052292;28;20175;-49
2023/10/07 12:37:38;;;;;;;6.47;3.17;;;;;;;;;;5052631;28;20214;-48
2023/10/07 12:40:10;;;;;;;5.40;2.75;;;21.80;99.90;;;;;;5052613;28;20159;-50
2023/10/07 12:42:39;;;;;;;8.27;3.67;;;21.70;99.90;;;;;;5052633;28;20179;-49
2023/10/07 12:45:05;;;;;;;4.53;3.03;;;21.80;99.90;;;;;;5052482;28;20263;-48
2023/10/07 12:47:34;;;;;;;4.32;2.92;;;21.80;99.90;;;;;;5052094;28;20297;-48
2023/10/07 12:50:20;;;;;;;8.05;3.30;;;21.70;99.90;;;;;;5052487;28;20174;-49
2023/10/07 12:52:49;;;;;;;8.80;3.50;;;21.90;99.90;;;;;;5052541;28;20372;-48
2023/10/07 12:55:16;;;;;;;6.40;3.22;;;21.90;99.90;;;;;;5052547;28;20169;-49
2023/10/07 12:57:41;;;;;;;4.72;3.28;;;22.00;99.90;;;;;;5051925;28;20221;-49
2023/10/07 13:00:28;;;;;;;8.20;3.45;;;22.00;99.90;;;;;;5034218;28;20159;-48
2023/10/07 13:02:54;;;;;;;8.00;3.75;;;22.00;99.90;;;;;;5052180;28;20174;-49
2023/10/07 13:05:20;;;;;;;4.00;2.83;;;;;;;;;;5051898;28;20166;-50
2023/10/07 13:07:47;;;;;;;5.53;3.38;;;22.00;99.90;;;;;;5052425;28;20174;-52
2023/10/07 13:10:14;;;;;;;9.15;3.13;;;22.00;99.90;;;;;;5051809;28;20174;-48
2023/10/07 13:12:42;;;;;;;7.00;2.75;;;22.00;99.90;;;;;;5051758;28;20253;-48
2023/10/07 13:15:14;;;;;;;5.22;3.17;;;22.10;99.90;;;;;;5051715;28;20163;-49
2023/10/07 13:17:46;;;;;;;5.47;3.50;;;22.10;99.90;;;;;;5051625;28;20209;-49
2023/10/07 13:20:13;;;;;;;6.15;3.17;;;22.10;99.90;;;;;;5051722;28;20174;-49
2023/10/07 13:22:39;;;;;;;5.22;3.40;;;22.00;99.90;;;;;;5051856;28;20208;-49
2023/10/07 13:25:07;;;;;;;6.50;3.67;;;22.00;99.90;;;;;;5051560;28;20279;-48
2023/10/07 13:27:32;;;;;;;5.70;3.10;;;22.10;99.90;;;;;;5051852;28;20185;-48
2023/10/07 13:30:03;;;;;;;5.43;3.17;;;22.00;99.90;;;;;;5051599;28;20175;-49
2023/10/07 13:32:28;;;;;;;7.38;3.15;;;22.10;99.90;;;;;;5051727;28;20257;-48
2023/10/07 13:34:54;;;;;;;4.88;3.30;;;22.10;99.90;;;;;;5051476;28;20253;-49
2023/10/07 13:37:19;;;;;;;6.63;3.33;;;22.10;99.90;;;;;;5051370;28;20289;-49
2023/10/07 13:39:45;;;;;;;6.22;3.60;;;22.10;99.90;;;;;;5051933;28;20170;-49
2023/10/07 13:42:11;;;;;;;5.03;3.13;;;22.10;99.90;;;;;;5051667;28;20170;-48
2023/10/07 13:44:36;;;;;;;7.68;3.78;;;22.20;99.90;;;;;;5051464;28;20194;-49
2023/10/07 13:47:02;;;;;;;7.43;3.70;;;22.20;99.90;;;;;;5051299;28;20271;-49
2023/10/07 13:49:27;;;;;;;7.45;3.58;;;22.10;99.90;;;;;;5051344;28;20185;-49
2023/10/07 13:51:56;;;;;;;7.00;3.80;;;22.10;99.90;;;;;;5051317;28;20526;-52
2023/10/07 13:54:23;;;;;;;5.55;3.08;;;22.00;99.90;;;;;;5051209;28;20178;-48